Time;durP1;ratioP1;P1;durP2;ratioP2;P2;SDS_P1;SDS_P2;PMS_P1;PMS_P2;Temp;Humidity;BMP_temperature;BMP_pressure;BME280_temperature;BME280_humidity;BME280_pressure;Samples;Min_cycle;Max_cycle;Signal;HPM_P1;HPM_P2
2022/10/20 00:00:00;;;;;;;11.07;6.73;;;;;;;11.11;100.00;101033.66;700929;28;1086;-65
2022/10/20 00:00:21;;;;;;;10.68;6.30;;;;;;;11.08;100.00;101037.13;700590;28;1208;-66
2022/10/20 00:00:42;;;;;;;10.23;6.30;;;;;;;11.01;100.00;101035.41;699390;28;4359;-65
2022/10/20 00:01:02;;;;;;;11.05;6.80;;;;;;;11.05;100.00;101031.91;699603;28;1067;-65
2022/10/20 00:01:26;;;;;;;10.43;6.63;;;;;;;11.02;100.00;101035.41;697852;28;1557;-66
2022/10/20 00:01:46;;;;;;;9.43;6.72;;;;;;;11.00;100.00;101034.50;696884;28;1050;-66
2022/10/20 00:02:06;;;;;;;10.03;6.33;;;;;;;10.95;100.00;101035.38;697235;28;1264;-66
2022/10/20 00:02:27;;;;;;;10.37;6.30;;;;;;;10.92;100.00;101038.00;698480;28;1209;-66
2022/10/20 00:02:47;;;;;;;11.05;6.28;;;;;;;10.93;100.00;101042.38;698052;28;948;-66
2022/10/20 00:03:07;;;;;;;10.87;6.50;;;;;;;10.96;100.00;101035.38;697487;28;1383;-66
2022/10/20 00:03:28;;;;;;;11.88;6.55;;;;;;;10.93;100.00;101035.38;697754;28;1197;-66
2022/10/20 00:03:49;;;;;;;9.53;6.27;;;;;;;10.98;100.00;101035.38;697320;28;4572;-65
2022/10/20 00:04:09;;;;;;;9.32;6.50;;;;;;;10.91;100.00;101039.78;698053;28;1167;-66
2022/10/20 00:04:29;;;;;;;11.87;6.87;;;;;;;10.95;100.00;101038.00;696581;28;1237;-66
2022/10/20 00:04:50;;;;;;;11.73;6.90;;;;;;;10.93;100.00;101038.00;695002;28;1019;-65
2022/10/20 00:05:10;;;;;;;10.40;6.23;;;;;;;10.88;100.00;101035.41;694593;28;1096;-65
2022/10/20 00:05:31;;;;;;;9.60;6.55;;;;;;;10.86;100.00;101039.75;694325;28;1154;-65
2022/10/20 00:05:52;;;;;;;10.13;6.90;;;;;;;10.84;100.00;101035.38;694265;28;1091;-65
2022/10/20 00:06:16;;;;;;;9.93;6.60;;;;;;;10.90;100.00;101035.41;692408;28;1228;-66
2022/10/20 00:06:37;;;;;;;9.05;6.15;;;;;;;10.92;100.00;101035.41;693211;28;1439;-65
2022/10/20 00:06:57;;;;;;;9.47;6.40;;;;;;;10.96;100.00;101030.16;694865;28;4415;-65
2022/10/20 00:07:17;;;;;;;9.47;6.67;;;;;;;10.94;100.00;101039.75;695129;28;1022;-66
2022/10/20 00:07:38;;;;;;;9.00;6.40;;;;;;;11.00;100.00;101026.66;695576;28;1079;-65
2022/10/20 00:07:58;;;;;;;10.65;6.20;;;;;;;10.99;100.00;101031.91;696155;28;1119;-65
2022/10/20 00:08:19;;;;;;;10.33;6.40;;;;;;;10.90;100.00;101028.41;698265;28;1052;-66
2022/10/20 00:08:40;;;;;;;9.90;6.63;;;;;;;10.94;100.00;101023.16;697804;28;1115;-65
2022/10/20 00:09:02;;;;;;;9.82;6.40;;;;;;;10.94;100.00;101025.78;698364;28;1891;-66
2022/10/20 00:09:23;;;;;;;10.57;6.55;;;;;;;10.93;100.00;101026.69;697965;28;1914;-66
2022/10/20 00:09:43;;;;;;;9.90;6.20;;;;;;;10.90;100.00;101025.78;697820;28;4554;-65
2022/10/20 00:10:04;;;;;;;11.10;6.07;;;;;;;10.97;100.00;101031.03;698385;28;1126;-64
2022/10/20 00:10:24;;;;;;;10.55;6.20;;;;;;;11.04;100.00;101022.31;698214;28;1191;-65
2022/10/20 00:10:55;;;;;;;10.07;6.43;;;;;;;10.94;100.00;101024.06;698526;28;1062;-66
2022/10/20 00:11:17;;;;;;;10.05;6.20;;;;;;;11.00;100.00;101017.94;697045;28;1110;-65
2022/10/20 00:11:38;;;;;;;10.00;6.20;;;;;;;11.01;100.00;101020.56;698380;28;1603;-65
2022/10/20 00:11:58;;;;;;;9.40;6.00;;;;;;;11.02;100.00;101018.81;692693;28;1420;-64
2022/10/20 00:12:18;;;;;;;8.80;5.90;;;;;;;10.99;100.00;101018.81;692663;28;1265;-64
2022/10/20 00:12:39;;;;;;;12.13;6.43;;;;;;;10.99;100.00;101021.44;692472;28;4544;-65
2022/10/20 00:12:59;;;;;;;11.53;6.27;;;;;;;10.98;100.00;101014.44;693206;28;1478;-66
2022/10/20 00:13:20;;;;;;;9.77;6.03;;;;;;;10.94;100.00;101013.59;692479;28;1344;-65
2022/10/20 00:13:42;;;;;;;9.32;6.13;;;;;;;10.95;100.00;101009.22;695566;28;1293;-65
2022/10/20 00:14:03;;;;;;;10.80;6.35;;;;;;;10.91;100.00;101013.59;698700;28;1361;-66
2022/10/20 00:14:23;;;;;;;11.03;6.50;;;;;;;10.89;100.00;101013.59;700507;28;1304;-66
2022/10/20 00:14:43;;;;;;;12.03;6.53;;;;;;;10.90;100.00;101007.50;697201;28;1135;-66
2022/10/20 00:15:04;;;;;;;10.77;6.13;;;;;;;10.87;100.00;101007.50;697102;28;1158;-65
2022/10/20 00:15:24;;;;;;;9.75;6.20;;;;;;;10.90;100.00;101002.25;696126;28;1278;-66
2022/10/20 00:15:52;;;;;;;9.03;6.20;;;;;;;10.94;100.00;101004.84;695780;28;4301;-65
2022/10/20 00:16:13;;;;;;;9.55;6.75;;;;;;;10.90;100.00;101001.41;696001;28;1481;-64
2022/10/20 00:16:36;;;;;;;11.40;6.50;;;;;;;10.90;100.00;100999.63;697112;28;1692;-66
2022/10/20 00:16:58;;;;;;;10.45;6.28;;;;;;;10.90;100.00;100998.78;697943;28;1090;-65
2022/10/20 00:17:19;;;;;;;8.32;6.30;;;;;;;10.98;100.00;100993.53;697220;28;1170;-65
2022/10/20 00:17:39;;;;;;;9.27;6.50;;;;;;;10.97;100.00;100994.41;698055;28;1245;-66
2022/10/20 00:17:59;;;;;;;11.77;6.30;;;;;;;10.95;100.00;100989.19;698168;28;1191;-66
2022/10/20 00:18:21;;;;;;;11.50;6.17;;;;;;;10.87;100.00;100996.19;697698;28;1421;-65
2022/10/20 00:18:42;;;;;;;10.65;6.47;;;;;;;10.93;100.00;101000.53;696357;28;4314;-65
2022/10/20 00:19:02;;;;;;;11.00;6.80;;;;;;;10.87;100.00;100993.56;697563;28;1388;-66
2022/10/20 00:19:23;;;;;;;9.32;6.28;;;;;;;10.89;100.00;100995.28;697064;28;3621;-65
2022/10/20 00:19:47;;;;;;;10.40;6.60;;;;;;;10.85;100.00;100988.31;698108;28;1198;-66
2022/10/20 00:20:07;;;;;;;10.23;6.38;;;;;;;10.80;100.00;100992.69;696784;28;1173;-65
2022/10/20 00:20:28;;;;;;;10.63;6.60;;;;;;;10.78;100.00;100986.56;697444;28;1226;-65
2022/10/20 00:20:49;;;;;;;11.20;6.75;;;;;;;10.77;100.00;100984.81;697642;28;1202;-65
2022/10/20 00:21:13;;;;;;;10.52;6.90;;;;;;;10.80;100.00;100984.84;696698;28;1202;-65
2022/10/20 00:21:33;;;;;;;9.50;6.75;;;;;;;10.83;100.00;100989.19;697538;28;1364;-65
2022/10/20 00:21:53;;;;;;;9.33;6.23;;;;;;;10.82;100.00;100992.69;697249;28;4596;-65
2022/10/20 00:22:14;;;;;;;10.00;6.45;;;;;;;10.80;100.00;100984.84;697311;28;1794;-65
2022/10/20 00:22:35;;;;;;;16.03;6.90;;;;;;;10.82;100.00;100987.44;697399;28;1506;-66
2022/10/20 00:22:55;;;;;;;14.30;7.07;;;;;;;10.77;100.00;100982.19;698396;28;1338;-65
2022/10/20 00:23:15;;;;;;;9.63;6.40;;;;;;;10.74;100.00;100984.81;696973;28;1215;-65
2022/10/20 00:23:36;;;;;;;9.43;6.65;;;;;;;10.71;100.00;100982.22;697320;28;1193;-66
2022/10/20 00:24:00;;;;;;;9.87;6.70;;;;;;;10.71;100.00;100984.84;698146;28;1247;-65
2022/10/20 00:24:20;;;;;;;10.30;6.10;;;;;;;10.65;100.00;100977.00;697520;28;1286;-66
2022/10/20 00:24:41;;;;;;;10.88;6.57;;;;;;;10.72;100.00;100981.34;696630;28;4308;-65
2022/10/20 00:25:01;;;;;;;10.77;6.50;;;;;;;10.82;100.00;100977.84;697551;28;1363;-65
2022/10/20 00:25:22;;;;;;;13.80;7.00;;;;;;;10.80;100.00;100978.72;697711;28;1654;-66
2022/10/20 00:25:42;;;;;;;12.40;7.10;;;;;;;10.86;100.00;100974.34;697841;28;1492;-66
2022/10/20 00:26:05;;;;;;;12.77;6.78;;;;;;;10.83;100.00;100968.28;696644;28;1427;-65
2022/10/20 00:26:27;;;;;;;10.07;6.68;;;;;;;10.77;100.00;100979.59;696181;28;1249;-66
2022/10/20 00:26:47;;;;;;;9.75;7.00;;;;;;;10.81;100.00;100970.88;696907;28;1578;-66
2022/10/20 00:27:08;;;;;;;11.30;6.70;;;;;;;10.84;100.00;100965.66;697732;28;1433;-66
2022/10/20 00:27:30;;;;;;;9.98;6.30;;;;;;;10.89;100.00;100968.25;697670;28;1494;-66
2022/10/20 00:27:50;;;;;;;8.80;6.68;;;;;;;10.86;100.00;100965.66;693837;28;4388;-65
2022/10/20 00:28:10;;;;;;;10.67;6.77;;;;;;;10.84;100.00;100967.38;694485;28;1579;-66
2022/10/20 00:28:32;;;;;;;10.88;6.68;;;;;;;10.88;100.00;100970.00;695035;28;1188;-65
2022/10/20 00:28:53;;;;;;;11.65;6.88;;;;;;;10.87;100.00;100967.41;695573;28;1396;-66
2022/10/20 00:29:13;;;;;;;10.13;6.65;;;;;;;10.86;100.00;100963.91;695313;28;1382;-65
2022/10/20 00:29:34;;;;;;;10.63;6.50;;;;;;;10.87;100.00;100957.81;697958;28;1921;-65
2022/10/20 00:29:54;;;;;;;10.77;6.70;;;;;;;10.83;100.00;100963.91;697451;28;1455;-65
2022/10/20 00:30:15;;;;;;;10.85;7.10;;;;;;;10.85;100.00;100964.75;697767;28;1412;-65
2022/10/20 00:30:36;;;;;;;10.33;6.67;;;;;;;10.85;100.00;100962.16;698090;28;1048;-64
2022/10/20 00:30:56;;;;;;;9.95;6.57;;;;;;;10.83;100.00;100958.69;697308;28;4293;-66
2022/10/20 00:31:18;;;;;;;9.50;6.80;;;;;;;10.85;100.00;100956.91;696932;28;1398;-66
2022/10/20 00:31:39;;;;;;;12.35;6.97;;;;;;;10.81;100.00;100955.19;695226;28;1341;-66
2022/10/20 00:31:59;;;;;;;11.43;6.73;;;;;;;10.78;100.00;100956.94;695384;28;1148;-66
2022/10/20 00:32:20;;;;;;;10.35;6.78;;;;;;;10.74;100.00;100958.69;691766;28;1232;-66
2022/10/20 00:32:40;;;;;;;10.33;6.80;;;;;;;10.79;100.00;100958.69;692394;28;1535;-66
2022/10/20 00:33:02;;;;;;;10.60;7.22;;;;;;;10.81;100.00;100955.19;692722;28;1084;-66
2022/10/20 00:33:24;;;;;;;10.90;6.90;;;;;;;10.79;100.00;100959.56;692422;28;1664;-66
2022/10/20 00:33:45;;;;;;;10.13;6.80;;;;;;;10.85;100.00;100959.53;690942;28;4580;-65
2022/10/20 00:34:05;;;;;;;9.40;6.95;;;;;;;10.86;100.00;100953.44;695295;28;1294;-66
2022/10/20 00:34:25;;;;;;;10.80;7.03;;;;;;;10.84;100.00;100957.81;695970;28;1130;-69
2022/10/20 00:34:46;;;;;;;12.40;7.10;;;;;;;10.93;100.00;100963.91;697123;28;1239;-66
2022/10/20 00:35:06;;;;;;;11.30;7.25;;;;;;;10.94;100.00;100960.38;697955;28;1214;-67
2022/10/20 00:35:31;;;;;;;11.98;6.95;;;;;;;10.89;100.00;100963.03;700418;28;1757;-65
2022/10/20 00:35:51;;;;;;;10.27;6.85;;;;;;;10.83;100.00;100963.91;700288;28;1367;-67
2022/10/20 00:36:15;;;;;;;9.60;6.53;;;;;;;10.81;100.00;100963.03;697694;28;1369;-65
2022/10/20 00:36:35;;;;;;;10.43;7.10;;;;;;;10.92;100.00;100956.94;696476;28;1439;-66
2022/10/20 00:36:56;;;;;;;10.45;7.05;;;;;;;10.85;100.00;100962.16;694508;28;4387;-66
2022/10/20 00:37:16;;;;;;;9.53;6.93;;;;;;;10.85;100.00;100961.28;694975;28;1154;-65
2022/10/20 00:37:36;;;;;;;11.00;7.13;;;;;;;10.89;100.00;100958.66;695174;28;1226;-66
2022/10/20 00:37:57;;;;;;;10.55;6.85;;;;;;;10.93;100.00;100953.44;695397;28;1223;-65
2022/10/20 00:38:18;;;;;;;10.35;6.63;;;;;;;10.96;100.00;100956.03;697175;28;1138;-66
2022/10/20 00:38:38;;;;;;;9.25;6.82;;;;;;;10.95;100.00;100967.38;695347;28;1167;-65
2022/10/20 00:39:01;;;;;;;10.00;6.90;;;;;;;10.96;100.00;100956.03;697128;28;1280;-66
2022/10/20 00:39:21;;;;;;;11.05;7.20;;;;;;;10.94;100.00;100950.81;697608;28;1300;-65
2022/10/20 00:39:41;;;;;;;8.80;6.60;;;;;;;10.95;100.00;100954.28;697270;28;4367;-66
2022/10/20 00:40:02;;;;;;;10.00;6.63;;;;;;;10.92;100.00;100956.94;697009;28;1345;-66
2022/10/20 00:40:24;;;;;;;9.98;6.82;;;;;;;10.91;100.00;100956.06;697172;28;1068;-66
2022/10/20 00:40:44;;;;;;;11.35;6.82;;;;;;;10.88;100.00;100954.31;697698;28;1299;-66
2022/10/20 00:41:05;;;;;;;10.40;6.90;;;;;;;10.83;100.00;100953.44;697474;28;1079;-67
2022/10/20 00:41:26;;;;;;;10.32;6.75;;;;;;;10.78;100.00;100957.81;697737;28;1088;-65
2022/10/20 00:41:47;;;;;;;10.63;6.70;;;;;;;10.82;100.00;100959.53;697068;28;5186;-65
2022/10/20 00:42:13;;;;;;;12.55;6.72;;;;;;;10.85;100.00;100962.16;697516;28;1110;-66
2022/10/20 00:42:33;;;;;;;10.65;6.72;;;;;;;10.80;100.00;100958.69;697686;28;1165;-65
2022/10/20 00:42:54;;;;;;;10.57;6.72;;;;;;;10.81;100.00;100959.53;696820;28;4631;-65
2022/10/20 00:43:15;;;;;;;10.53;7.00;;;;;;;10.81;100.00;100962.16;698163;28;1090;-66
2022/10/20 00:43:51;;;;;;;11.07;6.82;;;;;;;10.88;100.00;100962.16;700794;28;1141;-65
2022/10/20 00:44:48;;;;;;;9.60;6.70;;;;;;;10.92;100.00;100964.78;697245;28;1532;-65
2022/10/20 00:45:17;;;;;;;11.63;7.10;;;;;;;10.85;100.00;100971.75;696916;28;1150;-66
2022/10/20 00:45:40;;;;;;;9.43;6.50;;;;;;;10.84;100.00;100964.75;697819;28;1099;-66
2022/10/20 00:46:00;;;;;;;9.55;6.82;;;;;;;10.80;100.00;100966.53;693209;28;5150;-66
2022/10/20 00:46:40;;;;;;;10.93;7.20;;;;;;;10.81;100.00;100960.41;694483;28;1441;-65
2022/10/20 00:47:00;;;;;;;11.27;7.00;;;;;;;10.83;100.00;100961.28;695766;28;1174;-65
2022/10/20 00:47:32;;;;;;;11.23;6.97;;;;;;;10.94;100.00;100968.25;694410;28;1246;-65
2022/10/20 00:47:55;;;;;;;14.25;7.70;;;;;;;10.88;100.00;100967.41;696589;28;1091;-67
2022/10/20 00:48:21;;;;;;;10.07;7.13;;;;;;;10.94;100.00;100961.28;697555;28;997;-65
2022/10/20 00:48:44;;;;;;;10.35;6.70;;;;;;;10.95;100.00;100968.28;697820;28;4403;-65
2022/10/20 00:49:12;;;;;;;11.07;6.72;;;;;;;10.88;100.00;100967.41;698172;28;1292;-65
2022/10/20 00:49:33;;;;;;;9.63;6.95;;;;;;;10.88;100.00;100966.50;697962;28;1900;-65
2022/10/20 00:49:57;;;;;;;9.50;6.47;;;;;;;10.90;100.00;100967.41;698323;28;1321;-65
2022/10/20 00:50:28;;;;;;;9.07;6.63;;;;;;;10.92;100.00;100960.41;697631;28;1214;-65
2022/10/20 00:50:51;;;;;;;9.77;6.82;;;;;;;10.95;100.00;100967.38;698728;28;1726;-66
2022/10/20 00:51:15;;;;;;;10.25;6.82;;;;;;;11.02;100.00;100966.47;698620;28;1449;-66
2022/10/20 00:51:36;;;;;;;11.35;6.90;;;;;;;11.03;100.00;100960.38;698701;28;1221;-65
2022/10/20 00:51:56;;;;;;;10.75;6.50;;;;;;;10.99;100.00;100953.41;698533;28;4376;-65
2022/10/20 00:52:21;;;;;;;9.77;6.75;;;;;;;10.95;100.00;100954.28;698684;28;980;-66
2022/10/20 00:52:44;;;;;;;10.93;6.78;;;;;;;10.89;100.00;100956.03;698818;28;1151;-66
2022/10/20 00:53:05;;;;;;;10.27;6.70;;;;;;;10.90;100.00;100952.56;696018;28;984;-65
2022/10/20 00:53:27;;;;;;;9.88;6.60;;;;;;;10.92;100.00;100951.69;696705;28;1260;-66
2022/10/20 00:53:52;;;;;;;11.25;6.65;;;;;;;10.88;100.00;100949.09;694281;28;1098;-64
2022/10/20 00:54:16;;;;;;;9.55;6.53;;;;;;;10.85;100.00;100946.47;695787;28;1532;-65
2022/10/20 00:54:37;;;;;;;11.82;6.90;;;;;;;10.82;100.00;100946.47;695417;28;1451;-66
2022/10/20 00:54:59;;;;;;;11.23;6.87;;;;;;;10.92;100.00;100956.94;696908;28;4466;-65
2022/10/20 00:55:25;;;;;;;12.07;7.10;;;;;;;10.86;100.00;100950.81;697402;28;1210;-65
2022/10/20 00:55:49;;;;;;;10.55;7.20;;;;;;;10.96;100.00;100945.59;695735;28;1209;-67
2022/10/20 00:56:10;;;;;;;9.70;6.50;;;;;;;10.89;100.00;100942.09;694604;28;1334;-65
2022/10/20 00:56:32;;;;;;;9.20;6.18;;;;;;;10.94;100.00;100944.69;694047;28;1379;-66
2022/10/20 00:56:54;;;;;;;9.77;6.40;;;;;;;10.98;100.00;100941.22;695933;28;1251;-65
2022/10/20 00:57:16;;;;;;;9.73;6.68;;;;;;;10.93;100.00;100945.59;695816;28;1068;-66
2022/10/20 00:57:37;;;;;;;8.38;6.30;;;;;;;10.87;100.00;100944.72;696013;28;1405;-66
2022/10/20 00:58:00;;;;;;;10.32;6.60;;;;;;;10.84;100.00;100944.75;697808;28;4254;-66
2022/10/20 00:58:20;;;;;;;10.63;6.90;;;;;;;10.82;100.00;100945.59;698203;28;1454;-66
2022/10/20 00:58:42;;;;;;;11.32;6.95;;;;;;;10.79;100.00;100949.09;699078;28;1506;-65
2022/10/20 00:59:03;;;;;;;9.52;6.88;;;;;;;10.93;100.00;100943.84;698163;28;1035;-66
2022/10/20 00:59:30;;;;;;;11.63;6.60;;;;;;;10.85;100.00;100940.38;697492;28;1351;-66
2022/10/20 00:59:50;;;;;;;11.80;6.60;;;;;;;10.81;100.00;100951.69;698141;28;1240;-66
2022/10/20 01:00:12;;;;;;;10.17;6.57;;;;;;;10.78;100.00;100951.72;697399;28;1048;-65
2022/10/20 01:00:32;;;;;;;10.70;6.80;;;;;;;10.73;100.00;100951.72;697768;28;1146;-66
2022/10/20 01:00:56;;;;;;;10.07;6.47;;;;;;;10.74;100.00;100958.69;697990;28;4503;-66
2022/10/20 01:01:17;;;;;;;9.10;6.72;;;;;;;10.79;100.00;100946.47;697789;28;1290;-66
2022/10/20 01:01:40;;;;;;;9.50;6.60;;;;;;;10.83;100.00;100957.81;698521;28;1230;-66
2022/10/20 01:02:03;;;;;;;9.63;6.28;;;;;;;10.94;100.00;100955.16;694641;28;1078;-65
2022/10/20 01:02:24;;;;;;;12.00;6.30;;;;;;;10.97;100.00;100953.44;697747;28;1259;-66
2022/10/20 01:02:45;;;;;;;9.70;6.43;;;;;;;11.01;100.00;100955.16;696148;28;1098;-65
2022/10/20 01:03:11;;;;;;;9.50;6.70;;;;;;;11.11;100.00;100950.78;694990;28;1433;-64
2022/10/20 01:03:49;;;;;;;9.27;6.75;;;;;;;11.10;100.00;100954.25;695890;28;987;-64
2022/10/20 01:04:10;;;;;;;9.50;6.38;;;;;;;11.13;100.00;100951.66;695787;28;4873;-66
2022/10/20 01:04:32;;;;;;;9.45;6.40;;;;;;;11.11;100.00;100955.16;698116;28;1144;-65
2022/10/20 01:04:52;;;;;;;10.80;6.50;;;;;;;11.05;100.00;100943.81;698528;28;1374;-66
2022/10/20 01:05:13;;;;;;;10.80;6.38;;;;;;;11.00;100.00;100949.94;698125;28;982;-66
2022/10/20 01:05:33;;;;;;;9.55;6.07;;;;;;;11.06;100.00;100940.34;700720;28;1213;-66
2022/10/20 01:05:53;;;;;;;9.50;6.37;;;;;;;11.03;100.00;100942.94;701183;28;979;-66
2022/10/20 01:06:17;;;;;;;9.37;6.23;;;;;;;11.01;100.00;100946.47;699904;28;999;-66
2022/10/20 01:06:37;;;;;;;8.70;6.03;;;;;;;10.97;100.00;100944.72;700090;28;1145;-65
2022/10/20 01:06:58;;;;;;;9.52;6.15;;;;;;;10.93;100.00;100948.22;701270;28;4462;-65
2022/10/20 01:07:18;;;;;;;8.98;6.40;;;;;;;11.00;100.00;100944.72;700584;28;970;-65
2022/10/20 01:07:39;;;;;;;9.30;6.60;;;;;;;10.98;100.00;100946.44;697811;28;974;-66
2022/10/20 01:08:00;;;;;;;9.10;6.50;;;;;;;11.01;100.00;100946.47;697649;28;1499;-65
2022/10/20 01:08:20;;;;;;;8.38;6.03;;;;;;;11.00;100.00;100945.56;700233;28;1286;-65
2022/10/20 01:08:41;;;;;;;13.10;6.65;;;;;;;11.05;100.00;100942.97;701078;28;1214;-66
2022/10/20 01:09:02;;;;;;;11.63;6.90;;;;;;;11.07;100.00;100947.28;700990;28;1597;-65
2022/10/20 01:09:23;;;;;;;9.77;6.57;;;;;;;11.01;100.00;100941.22;701288;28;1516;-66
2022/10/20 01:09:43;;;;;;;10.70;6.45;;;;;;;10.94;100.00;100940.34;700206;28;4320;-64
2022/10/20 01:10:05;;;;;;;9.18;6.18;;;;;;;10.89;100.00;100937.72;700488;28;1194;-66
2022/10/20 01:10:31;;;;;;;11.35;6.55;;;;;;;10.90;100.00;100943.84;696763;28;1039;-65
2022/10/20 01:11:45;;;;;;;10.02;6.10;;;;;;;10.91;100.00;100924.69;698820;28;1371;-66
2022/10/20 01:12:14;;;;;;;9.57;6.55;;;;;;;10.93;100.00;100933.38;689755;28;1127;-66
2022/10/20 01:12:40;;;;;;;10.68;6.75;;;;;;;10.94;100.00;100929.91;689477;28;1354;-67
2022/10/20 01:13:23;;;;;;;8.77;6.50;;;;;;;10.86;100.00;100929.03;690212;28;4712;-66
2022/10/20 01:13:52;;;;;;;9.65;6.03;;;;;;;10.73;100.00;100926.44;687664;28;2019;-66
2022/10/20 01:14:37;;;;;;;9.75;6.60;;;;;;;10.67;100.00;100928.19;687154;28;1400;-66
2022/10/20 01:15:03;;;;;;;9.93;6.30;;;;;;;10.67;100.00;100920.34;696658;28;1183;-65
2022/10/20 01:15:58;;;;;;;10.82;6.63;;;;;;;10.80;100.00;100921.19;696807;28;1296;-65
2022/10/20 01:16:31;;;;;;;10.10;6.40;;;;;;;10.82;100.00;100919.47;688852;28;4814;-66
2022/10/20 01:17:15;;;;;;;10.25;6.40;;;;;;;10.81;100.00;100910.72;697673;28;1281;-65
2022/10/20 01:17:56;;;;;;;10.27;6.45;;;;;;;10.84;100.00;100917.69;697937;28;1165;-66
2022/10/20 01:18:31;;;;;;;10.45;6.43;;;;;;;10.82;100.00;100914.22;697855;28;1364;-65
2022/10/20 01:19:05;;;;;;;10.40;6.93;;;;;;;10.88;100.00;100914.19;696345;28;4368;-66
2022/10/20 01:19:50;;;;;;;9.43;6.20;;;;;;;10.83;100.00;100908.13;697827;28;1249;-66
2022/10/20 01:20:24;;;;;;;13.45;6.93;;;;;;;10.71;100.00;100906.38;697767;28;1071;-66
2022/10/20 01:21:39;;;;;;;9.48;6.60;;;;;;;10.68;100.00;100912.50;697156;28;1601;-66
2022/10/20 01:22:16;;;;;;;10.02;6.57;;;;;;;10.82;100.00;100906.38;687956;28;4961;-65
2022/10/20 01:23:09;;;;;;;10.30;6.55;;;;;;;10.88;100.00;100915.09;689739;28;1309;-65
2022/10/20 01:23:51;;;;;;;9.50;6.35;;;;;;;10.90;100.00;100917.69;691184;28;822;-66
2022/10/20 01:24:49;;;;;;;10.55;6.53;;;;;;;10.93;100.00;100911.59;690299;28;1355;-65
2022/10/20 01:25:19;;;;;;;10.35;6.45;;;;;;;10.91;100.00;100911.59;689608;28;4736;-66
2022/10/20 01:25:58;;;;;;;10.68;6.50;;;;;;;10.99;100.00;100922.88;687211;28;1302;-66
2022/10/20 01:26:37;;;;;;;10.40;6.43;;;;;;;10.96;100.00;100912.44;687923;28;1527;-65
2022/10/20 01:27:13;;;;;;;11.45;6.50;;;;;;;11.00;100.00;100910.69;684771;28;1050;-65
2022/10/20 01:27:53;;;;;;;10.13;6.38;;;;;;;11.02;100.00;100911.53;686643;28;1232;-66
2022/10/20 01:28:17;;;;;;;10.93;6.47;;;;;;;10.97;100.00;100910.72;697534;28;4725;-66
2022/10/20 01:28:49;;;;;;;10.35;6.13;;;;;;;10.95;100.00;100904.59;698910;28;1431;-65
2022/10/20 01:29:13;;;;;;;9.60;6.18;;;;;;;10.95;100.00;100909.81;697872;28;1448;-66
2022/10/20 01:29:42;;;;;;;8.90;6.10;;;;;;;10.85;100.00;100904.59;698097;28;1918;-66
2022/10/20 01:30:08;;;;;;;10.27;6.43;;;;;;;10.86;100.00;100901.13;698748;28;1166;-65
2022/10/20 01:30:29;;;;;;;9.63;6.40;;;;;;;10.88;100.00;100901.13;697696;28;1212;-64
2022/10/20 01:30:57;;;;;;;8.82;6.22;;;;;;;10.99;100.00;100895.88;698126;28;4880;-64
2022/10/20 01:31:29;;;;;;;9.93;6.50;;;;;;;11.00;100.00;100895.00;697835;28;1059;-65
2022/10/20 01:32:06;;;;;;;9.18;6.00;;;;;;;11.01;100.00;100895.00;697220;28;1066;-66
2022/10/20 01:32:58;;;;;;;9.48;6.10;;;;;;;10.94;100.00;100892.38;698458;28;1423;-64
2022/10/20 01:33:40;;;;;;;10.25;6.53;;;;;;;10.94;100.00;100902.84;697787;28;1209;-66
2022/10/20 01:34:12;;;;;;;9.45;6.40;;;;;;;10.87;100.00;100889.81;698149;28;4850;-65
2022/10/20 01:34:45;;;;;;;9.98;6.60;;;;;;;10.93;100.00;100885.44;697505;28;1124;-67
2022/10/20 01:35:47;;;;;;;8.05;6.32;;;;;;;10.90;100.00;100889.78;697981;28;1142;-65
2022/10/20 01:36:24;;;;;;;10.07;6.50;;;;;;;10.97;100.00;100888.03;687938;28;1377;-66
2022/10/20 01:37:00;;;;;;;9.00;6.18;;;;;;;10.85;100.00;100893.28;697063;28;4461;-66
2022/10/20 01:37:35;;;;;;;8.43;6.35;;;;;;;10.84;100.00;100886.31;696974;28;1259;-66
2022/10/20 01:38:15;;;;;;;9.82;6.57;;;;;;;10.81;100.00;100892.41;698036;28;1274;-65
2022/10/20 01:38:45;;;;;;;9.95;6.40;;;;;;;10.86;100.00;100890.66;698035;28;1079;-67
2022/10/20 01:39:24;;;;;;;9.23;6.70;;;;;;;10.94;100.00;100887.16;698254;28;963;-66
2022/10/20 01:39:51;;;;;;;9.98;6.55;;;;;;;10.96;100.00;100891.50;698151;28;4468;-66
2022/10/20 01:40:14;;;;;;;9.77;6.63;;;;;;;10.88;100.00;100891.56;698193;28;1107;-65
2022/10/20 01:41:10;;;;;;;8.85;6.63;;;;;;;10.81;100.00;100889.78;696182;28;1084;-65
2022/10/20 01:41:41;;;;;;;10.93;6.63;;;;;;;10.80;100.00;100890.69;685274;28;1379;-66
2022/10/20 01:42:10;;;;;;;11.20;6.38;;;;;;;10.75;100.00;100886.34;687312;28;1278;-66
2022/10/20 01:42:30;;;;;;;8.90;6.55;;;;;;;10.71;100.00;100890.69;699425;28;1043;-66
2022/10/20 01:42:53;;;;;;;9.40;6.75;;;;;;;10.72;100.00;100893.31;698806;28;4465;-66
2022/10/20 01:43:18;;;;;;;9.95;6.85;;;;;;;10.80;100.00;100890.69;699782;28;1128;-64
2022/10/20 01:43:41;;;;;;;9.70;6.80;;;;;;;10.82;100.00;100886.31;700637;28;965;-64
2022/10/20 01:44:05;;;;;;;8.57;6.35;;;;;;;10.86;100.00;100890.66;697949;28;1932;-66
2022/10/20 01:44:28;;;;;;;10.07;6.60;;;;;;;10.90;100.00;100884.56;699429;28;1145;-65
2022/10/20 01:44:52;;;;;;;9.88;6.60;;;;;;;10.86;100.00;100893.28;698602;28;1135;-66
2022/10/20 01:45:16;;;;;;;10.73;6.63;;;;;;;10.94;100.00;100893.28;698239;28;1072;-66
2022/10/20 01:45:41;;;;;;;11.70;6.75;;;;;;;10.91;100.00;100890.69;697530;28;1146;-66
2022/10/20 01:46:02;;;;;;;10.00;6.80;;;;;;;10.96;100.00;100890.66;694800;28;4877;-65
2022/10/20 01:46:25;;;;;;;10.00;6.45;;;;;;;10.99;100.00;100891.50;695563;28;1289;-65
2022/10/20 01:46:46;;;;;;;9.93;6.28;;;;;;;11.04;100.00;100892.34;695413;28;1047;-66
2022/10/20 01:47:10;;;;;;;10.43;6.13;;;;;;;11.02;100.00;100890.63;695152;28;1048;-66
2022/10/20 01:47:32;;;;;;;9.57;6.20;;;;;;;10.94;100.00;100887.16;694909;28;1310;-66
2022/10/20 01:47:53;;;;;;;9.32;6.18;;;;;;;10.86;100.00;100898.50;694605;28;1104;-66
2022/10/20 01:48:16;;;;;;;10.18;6.47;;;;;;;10.79;100.00;100888.09;692896;28;1190;-66
2022/10/20 01:48:39;;;;;;;9.52;6.22;;;;;;;10.76;100.00;100896.81;693389;28;1103;-66
2022/10/20 01:49:02;;;;;;;9.52;6.20;;;;;;;10.78;100.00;100896.78;692951;28;4790;-66
2022/10/20 01:49:24;;;;;;;9.88;6.38;;;;;;;10.74;100.00;100895.91;693212;28;1299;-66
2022/10/20 01:49:47;;;;;;;10.70;6.35;;;;;;;10.76;100.00;100895.91;695865;28;1977;-67
2022/10/20 01:50:11;;;;;;;8.25;5.90;;;;;;;10.71;100.00;100903.78;694708;28;1463;-66
2022/10/20 01:50:35;;;;;;;9.50;6.07;;;;;;;10.77;100.00;100901.13;695224;28;979;-66
2022/10/20 01:50:56;;;;;;;11.75;6.40;;;;;;;10.74;100.00;100901.16;696177;28;1091;-65
2022/10/20 01:51:16;;;;;;;8.83;6.10;;;;;;;10.71;100.00;100895.94;692792;28;1474;-66
2022/10/20 01:51:36;;;;;;;9.90;6.32;;;;;;;10.67;100.00;100899.41;694853;28;1308;-65
2022/10/20 01:51:57;;;;;;;9.67;6.23;;;;;;;10.68;100.00;100894.19;695024;28;4269;-66
2022/10/20 01:52:17;;;;;;;8.50;6.28;;;;;;;10.67;100.00;100896.81;695842;28;1233;-66
2022/10/20 01:52:38;;;;;;;8.57;6.00;;;;;;;10.66;100.00;100902.91;697644;28;1440;-65
2022/10/20 01:52:59;;;;;;;10.70;6.55;;;;;;;10.66;100.00;100893.34;698905;28;956;-65
2022/10/20 01:53:20;;;;;;;10.15;6.30;;;;;;;10.66;100.00;100893.34;698126;28;1020;-65
2022/10/20 01:53:40;;;;;;;9.85;6.40;;;;;;;10.65;100.00;100895.97;698312;28;1011;-65
2022/10/20 01:54:01;;;;;;;9.67;6.40;;;;;;;10.71;100.00;100890.69;697707;28;1039;-66
2022/10/20 01:54:23;;;;;;;11.07;6.38;;;;;;;10.76;100.00;100891.56;698257;28;1284;-66
2022/10/20 01:54:44;;;;;;;10.48;6.50;;;;;;;10.71;100.00;100885.47;696477;28;4376;-66
2022/10/20 01:55:16;;;;;;;9.63;6.20;;;;;;;10.76;100.00;100893.28;697403;28;2042;-66
2022/10/20 01:55:37;;;;;;;10.13;6.78;;;;;;;10.72;100.00;100892.44;697832;28;1638;-66
2022/10/20 01:55:59;;;;;;;10.18;6.65;;;;;;;10.71;100.00;100886.31;694728;28;1038;-66
2022/10/20 01:56:29;;;;;;;8.77;5.88;;;;;;;10.66;100.00;100890.72;692763;28;2163;-66